ENSB Informações do Aeroporto

Informações da Pista
Pista 10 Comprimento 7608 ft Largura 148 ft
Elevação 63 ft Limite 199 ft Heading 105
Pista 28 Comprimento 7608 ft Largura 148 ft
Elevação 73 ft Limite 395 ft Heading 285
Frequências do Aeroporto
Tipo AFIS Nome INFO Frequência 118.1 MHZ
Tipo AFIS Nome INFO Frequência 884 MHZ
Navaids do Aeroporto
Informações meteorológicas do aeroporto e NOTAM
ADDS - METARS form results

(2313 UTC 03 July 2022)
Data provider http://aviationweather.gov/metar/data/
 
METAR text: ENSB 032250Z 14017KT 9999 BKN033 09/04 Q1007 RMK WIND 1400FT 13017KT
Conditions at: ENSB (SVALBARD/LONGYEA, SJ) observed 2250 UTC 03 July 2022
Temperature: 9.0°C (48°F)
Dewpoint: 4.0°C (39°F) [RH = 71%]
Pressure (altimeter): 29.73 inches Hg (1007.0 mb)
Winds: from the SE (140 degrees) at 20 MPH (17 knots; 8.7 m/s)
Visibility: 6 or more miles (10+ km)
Ceiling: 3300 feet AGL
Clouds: broken clouds at 3300 feet AGL
Weather: no significant weather observed at this time

METAR text: ENSB 032220Z 13016KT 9999 FEW026 BKN035 10/04 Q1007 RMK WIND 1400FT 13016KT
Conditions at: ENSB (SVALBARD/LONGYEA, SJ) observed 2220 UTC 03 July 2022
Temperature: 10.0°C (50°F)
Dewpoint: 4.0°C (39°F) [RH = 66%]
Pressure (altimeter): 29.73 inches Hg (1007.0 mb)
Winds: from the SE (130 degrees) at 18 MPH (16 knots; 8.2 m/s)
Visibility: 6 or more miles (10+ km)
Ceiling: 3500 feet AGL
Clouds: few clouds at 2600 feet AGL
broken clouds at 3500 feet AGL
Weather: no significant weather observed at this time

Forecast for: ENSB (SVALBARD/LONGYEA, SJ)
Text: TAF ENSB 0318/0418 26008KT 9999 BKN030
Forecast period: 1800 UTC 03 July 2022 to 1800 UTC 04 July 2022
Forecast type: FROM: standard forecast or significant change
Winds: from the W (260 degrees) at 9 MPH (8 knots; 4.1 m/s)
Visibility: 6 or more miles (10+ km)
Ceiling: 3000 feet AGL
Clouds: broken clouds at 3000 feet AGL
Weather: no significant weather forecast for this period
Text: BECMG 0318/0320 12010KT
Forecast period: 1800 UTC 03 July 2022 to 1800 UTC 04 July 2022
Forecast type: BECOMING: Conditions expected to become as follows by 2000 UTC 03 July 2022
Winds: from the ESE (120 degrees) at 12 MPH (10 knots; 5.1 m/s)
Visibility: 6 or more miles (10+ km)
Ceiling: 3000 feet AGL
Clouds: broken clouds at 3000 feet AGL
Weather: no significant weather forecast for this period
Text: TEMPO 0410/0418 RADZ BKN012
Forecast period: 1000 to 1800 UTC 04 July 2022
Forecast type: TEMPORARY: The following changes expected for less than half the time period
Visibility: missing
Ceiling: 1200 feet AGL
Clouds: broken clouds at 1200 feet AGL
Weather: RA DZ  (moderate rain, moderate drizzle)